createdAt,value
2022-12-18T00:02:13.583Z,130.30
2022-12-18T00:04:40.425Z,126.93
2022-12-18T00:07:07.529Z,124.22
2022-12-18T00:09:40.041Z,117.65
2022-12-18T00:14:45.635Z,127.18
2022-12-18T00:17:12.363Z,130.90
2022-12-18T00:19:39.048Z,123.95
2022-12-18T00:22:07.094Z,123.75
2022-12-18T00:24:33.863Z,119.78
2022-12-18T00:27:00.478Z,124.68
2022-12-18T00:29:27.243Z,119.05
2022-12-18T00:31:53.998Z,129.30
2022-12-18T00:34:20.695Z,118.68
2022-12-18T00:36:48.790Z,116.05
2022-12-18T00:39:15.602Z,120.00
2022-12-18T00:42:03.694Z,123.55
2022-12-18T00:44:31.864Z,123.32
2022-12-18T00:46:58.664Z,118.07
2022-12-18T00:49:25.457Z,132.32
2022-12-18T00:51:52.254Z,129.82
2022-12-18T00:54:21.762Z,121.30
2022-12-18T00:56:49.740Z,128.00
2022-12-18T00:59:18.753Z,123.47
2022-12-18T01:01:46.297Z,118.10
2022-12-18T01:04:13.144Z,125.55
2022-12-18T01:06:39.825Z,132.75
2022-12-18T01:09:07.181Z,121.60
2022-12-18T01:11:36.745Z,131.60
2022-12-18T01:14:04.595Z,125.38
2022-12-18T01:16:34.357Z,131.40
2022-12-18T01:19:01.086Z,122.45
2022-12-18T01:21:28.152Z,122.63
2022-12-18T01:23:57.004Z,133.20
2022-12-18T01:26:25.645Z,121.65
2022-12-18T01:28:52.548Z,131.02
2022-12-18T01:31:23.544Z,121.95
2022-12-18T01:33:52.134Z,124.55
2022-12-18T01:36:26.688Z,122.57
2022-12-18T01:38:54.260Z,128.23
2022-12-18T01:41:24.875Z,117.45
2022-12-18T01:43:58.812Z,116.72
2022-12-18T01:46:27.157Z,128.18
2022-12-18T01:49:02.368Z,123.43
2022-12-18T01:51:31.808Z,116.75
2022-12-18T01:53:59.222Z,116.38
2022-12-18T01:56:25.947Z,120.53
2022-12-18T01:59:06.636Z,133.43
2022-12-18T02:01:34.217Z,132.10
2022-12-18T02:04:26.791Z,120.10
2022-12-18T02:07:24.617Z,125.60
2022-12-18T02:10:12.900Z,117.93
2022-12-18T02:12:56.808Z,119.28
2022-12-18T02:15:41.649Z,116.10
2022-12-18T02:18:31.438Z,155.65
2022-12-18T02:21:11.703Z,115.82
2022-12-18T02:23:47.528Z,116.25
2022-12-18T02:26:37.414Z,124.30
2022-12-18T02:29:17.537Z,121.22
2022-12-18T02:31:54.564Z,109.68
2022-12-18T02:34:25.953Z,124.60
2022-12-18T02:36:55.906Z,115.32
2022-12-18T02:39:24.739Z,116.70
2022-12-18T02:42:00.692Z,111.80
2022-12-18T02:44:27.696Z,115.57
2022-12-18T02:46:55.696Z,120.43
2022-12-18T02:49:47.570Z,123.85
2022-12-18T02:52:58.250Z,121.28
2022-12-18T02:55:54.055Z,113.90
2022-12-18T02:58:46.450Z,134.88
2022-12-18T03:01:34.574Z,115.53
2022-12-18T03:04:10.784Z,119.82
2022-12-18T03:06:44.500Z,119.35
2022-12-18T03:09:35.545Z,114.72
2022-12-18T03:12:25.561Z,117.55
2022-12-18T03:15:20.626Z,118.65
2022-12-18T03:18:03.945Z,126.72
2022-12-18T03:20:33.745Z,123.43
2022-12-18T03:23:15.297Z,115.32
2022-12-18T03:25:48.341Z,131.80
2022-12-18T03:28:20.314Z,131.00
2022-12-18T03:30:57.669Z,123.78
2022-12-18T03:33:33.610Z,131.32
2022-12-18T03:36:00.282Z,123.97
2022-12-18T03:38:27.706Z,124.30
2022-12-18T03:41:06.016Z,124.70
2022-12-18T03:43:53.155Z,121.30
2022-12-18T03:46:27.378Z,118.78
2022-12-18T03:49:02.594Z,118.75
2022-12-18T03:51:40.556Z,122.60
2022-12-18T03:54:10.111Z,121.82
2022-12-18T03:56:50.798Z,126.50
2022-12-18T03:59:19.227Z,122.00
2022-12-18T04:01:53.887Z,122.70
2022-12-18T04:04:23.151Z,115.00
2022-12-18T04:06:51.859Z,131.27
2022-12-18T04:09:20.648Z,120.97
2022-12-18T04:11:48.754Z,117.07
2022-12-18T04:14:18.273Z,131.05
2022-12-18T04:16:46.289Z,135.63
2022-12-18T04:19:16.349Z,116.55
2022-12-18T04:21:44.842Z,115.05
2022-12-18T04:24:13.749Z,121.32
2022-12-18T04:26:46.969Z,115.05
2022-12-18T04:29:17.283Z,123.07
2022-12-18T04:31:44.203Z,123.88
2022-12-18T04:34:11.409Z,127.00
2022-12-18T04:36:43.995Z,109.70
2022-12-18T04:39:10.867Z,126.75
2022-12-18T04:41:37.734Z,122.45
2022-12-18T04:44:05.855Z,130.35
2022-12-18T04:46:32.554Z,119.07
2022-12-18T04:48:59.242Z,130.95
2022-12-18T04:51:26.868Z,120.47
2022-12-18T04:53:54.577Z,112.60
2022-12-18T04:56:21.729Z,115.65
2022-12-18T04:58:48.479Z,121.53
2022-12-18T05:01:17.043Z,120.03
2022-12-18T05:03:44.394Z,126.63
2022-12-18T05:06:11.718Z,133.73
2022-12-18T05:08:38.397Z,120.30
2022-12-18T05:11:07.918Z,121.20
2022-12-18T05:13:35.917Z,128.90
2022-12-18T05:16:03.643Z,116.68
2022-12-18T05:18:30.465Z,128.23
2022-12-18T05:20:57.349Z,118.13
2022-12-18T05:23:25.237Z,129.85
2022-12-18T05:25:57.463Z,116.88
2022-12-18T05:28:26.046Z,112.38
2022-12-18T05:30:55.279Z,129.27
2022-12-18T05:33:23.306Z,129.40
2022-12-18T05:35:58.547Z,115.38
2022-12-18T05:38:27.131Z,109.43
2022-12-18T05:40:54.225Z,115.85
2022-12-18T05:43:22.877Z,111.90
2022-12-18T05:45:50.124Z,139.07
2022-12-18T05:48:17.883Z,115.15
2022-12-18T05:50:46.732Z,119.93
2022-12-18T05:53:15.580Z,115.97
2022-12-18T05:55:43.449Z,133.65
2022-12-18T05:58:12.325Z,129.35
2022-12-18T06:00:41.981Z,126.10
2022-12-18T06:03:11.302Z,123.22
2022-12-18T06:05:40.359Z,129.30
2022-12-18T06:08:07.106Z,128.05
2022-12-18T06:10:34.323Z,134.55
2022-12-18T06:13:01.468Z,119.90
2022-12-18T06:15:28.154Z,121.38
2022-12-18T06:17:54.779Z,118.30
2022-12-18T06:20:21.747Z,118.78
2022-12-18T06:22:48.588Z,117.00
2022-12-18T06:25:15.338Z,116.57
2022-12-18T06:27:42.079Z,122.40
2022-12-18T06:30:10.366Z,123.60
2022-12-18T06:32:37.113Z,119.93
2022-12-18T06:35:04.911Z,124.22
2022-12-18T06:37:32.805Z,118.97
2022-12-18T06:39:59.482Z,121.22
2022-12-18T06:42:26.228Z,123.47
2022-12-18T06:44:52.867Z,129.38
2022-12-18T06:47:19.766Z,118.55
2022-12-18T06:49:46.467Z,119.13
2022-12-18T06:52:13.211Z,113.82
2022-12-18T06:54:39.915Z,119.85
2022-12-18T06:57:06.791Z,127.82
2022-12-18T06:59:33.796Z,140.95
2022-12-18T07:02:00.553Z,134.10
2022-12-18T07:04:31.280Z,152.50
2022-12-18T07:06:58.478Z,154.88
2022-12-18T07:09:25.537Z,149.88
2022-12-18T07:11:52.887Z,131.27
2022-12-18T07:14:19.691Z,136.10
2022-12-18T07:16:46.409Z,136.98
2022-12-18T07:19:13.120Z,138.10
2022-12-18T07:21:39.768Z,127.20
2022-12-18T07:24:07.032Z,128.23
2022-12-18T07:26:33.789Z,135.02
2022-12-18T07:29:00.558Z,137.57
2022-12-18T07:31:28.348Z,143.05
2022-12-18T07:33:56.022Z,414.55
2022-12-18T07:36:22.648Z,130.10
2022-12-18T07:38:50.462Z,144.82
2022-12-18T07:41:17.394Z,151.07
2022-12-18T07:43:44.543Z,141.05
2022-12-18T07:46:14.771Z,144.20
2022-12-18T07:48:42.824Z,145.02
2022-12-18T07:51:13.561Z,136.43
2022-12-18T07:53:41.212Z,150.80
2022-12-18T07:56:30.297Z,135.15
2022-12-18T07:58:58.617Z,139.52
2022-12-18T08:01:26.001Z,144.45
2022-12-18T08:03:52.870Z,136.40
2022-12-18T08:06:19.665Z,126.50
2022-12-18T08:08:55.527Z,123.65
2022-12-18T08:11:24.325Z,127.10
2022-12-18T08:13:51.189Z,119.63
2022-12-18T08:16:18.814Z,128.10
2022-12-18T08:18:46.415Z,127.65
2022-12-18T08:21:16.093Z,136.75
2022-12-18T08:23:43.728Z,126.05
2022-12-18T08:26:11.978Z,123.13
2022-12-18T08:28:38.871Z,133.05
2022-12-18T08:31:06.164Z,129.80
2022-12-18T08:33:33.435Z,122.85
2022-12-18T08:36:01.110Z,114.97
2022-12-18T08:38:28.038Z,134.27
2022-12-18T08:41:09.784Z,123.35
2022-12-18T08:43:55.047Z,122.90
2022-12-18T08:46:23.393Z,128.18
2022-12-18T08:48:52.792Z,124.88
2022-12-18T08:51:20.483Z,135.30
2022-12-18T08:53:48.103Z,139.65
2022-12-18T08:56:15.695Z,134.43
2022-12-18T08:58:42.867Z,125.95
2022-12-18T09:01:11.411Z,132.30
2022-12-18T09:03:39.237Z,140.77
2022-12-18T09:06:06.742Z,130.32
2022-12-18T09:08:33.662Z,135.80
2022-12-18T09:11:00.436Z,136.85
2022-12-18T09:13:27.395Z,129.85
2022-12-18T09:15:55.662Z,141.30
2022-12-18T09:18:24.127Z,139.45
2022-12-18T09:20:54.219Z,128.23
2022-12-18T09:23:21.718Z,140.45
2022-12-18T09:25:48.951Z,148.60
2022-12-18T09:28:17.850Z,128.43
2022-12-18T09:30:48.597Z,125.53
2022-12-18T09:33:16.315Z,142.75
2022-12-18T09:35:44.834Z,145.80
2022-12-18T09:38:17.359Z,140.05
2022-12-18T09:40:49.420Z,130.80
2022-12-18T09:43:24.115Z,144.73
2022-12-18T09:45:56.205Z,157.30
2022-12-18T09:48:35.248Z,131.93
2022-12-18T09:51:16.113Z,129.55
2022-12-18T09:53:48.232Z,128.73
2022-12-18T09:56:19.462Z,148.80
2022-12-18T09:59:05.530Z,147.68
2022-12-18T10:01:43.171Z,140.48
2022-12-18T10:04:11.255Z,131.85
2022-12-18T10:06:50.014Z,133.25
2022-12-18T10:09:40.644Z,127.88
2022-12-18T10:12:33.612Z,134.13
2022-12-18T10:15:00.248Z,146.25
2022-12-18T10:17:48.685Z,148.15
2022-12-18T10:20:38.131Z,129.52
2022-12-18T10:23:26.053Z,126.47
2022-12-18T10:26:11.211Z,145.30
2022-12-18T10:28:40.470Z,133.23
2022-12-18T10:31:14.984Z,131.48
2022-12-18T10:33:42.312Z,130.60
2022-12-18T10:36:09.061Z,141.25
2022-12-18T10:38:35.706Z,144.23
2022-12-18T10:41:05.538Z,134.20
2022-12-18T10:43:35.621Z,141.80
2022-12-18T10:46:08.472Z,137.32
2022-12-18T10:48:41.380Z,123.97
2022-12-18T10:51:12.363Z,139.32
2022-12-18T10:53:44.009Z,143.82
2022-12-18T10:56:11.680Z,135.98
2022-12-18T10:58:40.371Z,130.50
2022-12-18T11:01:18.789Z,159.40
2022-12-18T11:04:02.316Z,205.95
2022-12-18T11:06:30.235Z,141.93
2022-12-18T11:09:13.340Z,139.18
2022-12-18T11:11:41.934Z,146.55
2022-12-18T11:14:23.846Z,145.75
2022-12-18T11:19:42.160Z,142.77
2022-12-18T11:22:25.360Z,145.85
2022-12-18T11:28:21.748Z,129.50
2022-12-18T11:30:48.506Z,138.15
2022-12-18T11:33:23.695Z,138.55
2022-12-18T11:35:53.875Z,134.65
2022-12-18T11:38:26.801Z,126.28
2022-12-18T11:41:05.443Z,122.93
2022-12-18T11:43:41.867Z,134.70
2022-12-18T11:46:19.581Z,128.68
2022-12-18T11:49:13.322Z,137.55
2022-12-18T11:52:10.916Z,129.40
2022-12-18T11:54:37.573Z,137.52
2022-12-18T11:57:35.911Z,135.20
2022-12-18T12:00:08.569Z,135.48
2022-12-18T12:03:01.095Z,149.93
2022-12-18T12:05:48.197Z,125.68
2022-12-18T12:08:49.104Z,139.75
2022-12-18T12:11:31.050Z,133.40
2022-12-18T12:14:03.656Z,124.57
2022-12-18T12:16:33.038Z,134.52
2022-12-18T12:19:44.536Z,159.25
2022-12-18T12:22:36.209Z,193.45
2022-12-18T12:25:05.559Z,168.45
2022-12-18T12:27:50.747Z,176.70
2022-12-18T12:30:26.075Z,177.57
2022-12-18T12:33:17.611Z,164.33
2022-12-18T12:35:50.001Z,175.85
2022-12-18T12:38:38.120Z,148.93
2022-12-18T12:41:30.582Z,170.80
2022-12-18T12:44:03.070Z,187.20
2022-12-18T12:46:33.618Z,194.48
2022-12-18T12:49:05.248Z,199.27
2022-12-18T12:51:41.780Z,199.18
2022-12-18T12:54:18.535Z,197.75
2022-12-18T12:56:55.702Z,200.27
2022-12-18T12:59:41.184Z,186.68
2022-12-18T13:02:13.995Z,184.52
2022-12-18T13:04:50.982Z,198.75
2022-12-18T13:07:47.184Z,190.15
2022-12-18T13:10:17.862Z,201.07
2022-12-18T13:13:17.919Z,201.38
2022-12-18T13:16:05.858Z,179.40
2022-12-18T13:18:34.504Z,179.65
2022-12-18T13:21:03.231Z,185.35
2022-12-18T13:23:40.868Z,179.57
2022-12-18T13:26:07.614Z,181.00
2022-12-18T13:28:34.880Z,176.98
2022-12-18T13:31:05.128Z,173.27
2022-12-18T13:33:34.759Z,174.00
2022-12-18T13:36:16.811Z,179.57
2022-12-18T13:38:45.737Z,189.15
2022-12-18T13:41:15.798Z,182.80
2022-12-18T13:43:53.364Z,187.55
2022-12-18T13:46:27.918Z,166.43
2022-12-18T13:49:19.373Z,185.38
2022-12-18T13:51:50.757Z,165.75
2022-12-18T13:54:31.355Z,183.20
2022-12-18T13:56:58.081Z,179.88
2022-12-18T13:59:42.839Z,184.35
2022-12-18T14:02:25.261Z,175.13
2022-12-18T14:04:53.022Z,182.20
2022-12-18T14:07:30.445Z,174.25
2022-12-18T14:10:26.109Z,183.25
2022-12-18T14:13:00.368Z,169.88
2022-12-18T14:15:35.001Z,176.00
2022-12-18T14:18:09.848Z,171.52
2022-12-18T14:20:36.877Z,165.73
2022-12-18T14:23:04.160Z,164.05
2022-12-18T14:25:31.693Z,173.50
2022-12-18T14:28:11.302Z,170.05
2022-12-18T14:30:40.575Z,170.48
2022-12-18T14:33:15.300Z,168.55
2022-12-18T14:35:53.351Z,168.73
2022-12-18T14:38:36.451Z,182.05
2022-12-18T14:41:06.024Z,181.32
2022-12-18T14:43:35.141Z,172.85
2022-12-18T14:46:04.163Z,173.63
2022-12-18T14:48:42.870Z,163.38
2022-12-18T14:51:22.653Z,171.43
2022-12-18T14:54:00.855Z,182.13
2022-12-18T14:56:29.295Z,170.38
2022-12-18T14:58:59.618Z,170.32
2022-12-18T15:01:28.354Z,169.45
2022-12-18T15:03:57.107Z,177.35
2022-12-18T15:06:44.387Z,165.30
2022-12-18T15:09:25.969Z,175.65
2022-12-18T15:11:58.787Z,172.20
2022-12-18T15:14:36.315Z,162.98
2022-12-18T15:17:06.229Z,171.30
2022-12-18T15:19:40.465Z,181.73
2022-12-18T15:22:28.741Z,168.10
2022-12-18T15:24:57.358Z,180.65
2022-12-18T15:27:27.892Z,172.45
2022-12-18T15:30:06.461Z,173.65
2022-12-18T15:32:33.154Z,168.07
2022-12-18T15:35:23.771Z,172.35
2022-12-18T15:37:52.350Z,179.30
2022-12-18T15:40:24.933Z,178.98
2022-12-18T15:43:14.763Z,182.27
2022-12-18T15:45:41.516Z,172.25
2022-12-18T15:48:35.560Z,164.38
2022-12-18T15:51:04.835Z,164.60
2022-12-18T15:53:34.736Z,171.70
2022-12-18T15:56:20.156Z,163.98
2022-12-18T15:58:46.980Z,169.70
2022-12-18T16:01:14.342Z,163.82
2022-12-18T16:03:41.576Z,163.35
2022-12-18T16:06:10.400Z,160.32
2022-12-18T16:08:37.050Z,164.13
2022-12-18T16:11:04.302Z,171.63
2022-12-18T16:13:31.041Z,171.40
2022-12-18T16:15:57.964Z,176.40
2022-12-18T16:18:24.667Z,174.23
2022-12-18T16:20:51.453Z,166.20
2022-12-18T16:23:18.100Z,181.88
2022-12-18T16:25:44.847Z,190.98
2022-12-18T16:28:11.504Z,173.15
2022-12-18T16:30:38.824Z,161.35
2022-12-18T16:33:07.230Z,161.50
2022-12-18T16:35:34.799Z,175.18
2022-12-18T16:38:01.606Z,190.13
2022-12-18T16:40:28.296Z,175.65
2022-12-18T16:42:54.921Z,180.70
2022-12-18T16:45:21.569Z,190.02
2022-12-18T16:47:48.268Z,176.63
2022-12-18T16:50:14.928Z,179.10
2022-12-18T16:52:41.766Z,171.90
2022-12-18T16:55:08.929Z,167.93
2022-12-18T16:57:35.821Z,169.30
2022-12-18T17:00:05.460Z,175.30
2022-12-18T17:02:33.499Z,169.88
2022-12-18T17:05:00.542Z,170.20
2022-12-18T17:07:30.707Z,167.45
2022-12-18T17:09:57.970Z,179.93
2022-12-18T17:12:25.014Z,179.45
2022-12-18T17:14:51.647Z,187.13
2022-12-18T17:17:21.410Z,172.90
2022-12-18T17:19:49.081Z,175.60
2022-12-18T17:22:15.775Z,160.25
2022-12-18T17:24:42.482Z,163.93
2022-12-18T17:27:09.110Z,179.57
2022-12-18T17:29:36.107Z,164.02
2022-12-18T17:32:02.909Z,179.90
2022-12-18T17:34:30.044Z,173.00
2022-12-18T17:36:57.646Z,172.60
2022-12-18T17:39:24.407Z,160.32
2022-12-18T17:41:51.080Z,164.95
2022-12-18T17:44:18.787Z,160.18
2022-12-18T17:46:48.725Z,173.30
2022-12-18T17:49:15.510Z,167.50
2022-12-18T17:51:43.213Z,169.02
2022-12-18T17:54:10.678Z,174.38
2022-12-18T17:56:38.047Z,161.73
2022-12-18T17:59:04.862Z,165.52
2022-12-18T18:01:31.663Z,180.48
2022-12-18T18:04:00.338Z,171.43
2022-12-18T18:06:27.216Z,164.30
2022-12-18T18:08:54.420Z,171.20
2022-12-18T18:11:41.769Z,175.25
2022-12-18T18:14:16.068Z,170.50
2022-12-18T18:16:45.307Z,177.93
2022-12-18T18:19:15.571Z,187.55
2022-12-18T18:21:44.610Z,169.32
2022-12-18T18:24:14.151Z,177.57
2022-12-18T18:26:44.292Z,160.93
2022-12-18T18:29:19.646Z,165.00
2022-12-18T18:31:47.752Z,173.25
2022-12-18T18:34:22.744Z,180.30
2022-12-18T18:36:49.574Z,173.38
2022-12-18T18:39:16.513Z,166.30
2022-12-18T18:41:47.893Z,168.20
2022-12-18T18:44:16.133Z,181.63
2022-12-18T18:46:42.785Z,165.35
2022-12-18T18:49:09.776Z,163.77
2022-12-18T18:51:36.465Z,168.27
2022-12-18T18:54:03.358Z,167.70
2022-12-18T18:59:18.249Z,163.20
2022-12-18T19:01:45.083Z,180.18
2022-12-18T19:04:12.574Z,180.93
2022-12-18T19:06:39.311Z,172.90
2022-12-18T19:09:06.768Z,175.07
2022-12-18T19:11:52.765Z,205.05
2022-12-18T19:14:20.331Z,188.75
2022-12-18T19:16:47.082Z,181.05
2022-12-18T19:19:17.168Z,189.32
2022-12-18T19:21:44.059Z,187.45
2022-12-18T19:24:10.748Z,164.07
2022-12-18T19:26:37.848Z,176.80
2022-12-18T19:29:11.177Z,188.65
2022-12-18T19:31:38.469Z,165.05
2022-12-18T19:34:07.121Z,169.38
2022-12-18T19:36:36.980Z,159.90
2022-12-18T19:39:13.741Z,160.68
2022-12-18T19:41:41.005Z,158.48
2022-12-18T19:44:08.783Z,164.25
2022-12-18T19:46:37.171Z,167.18
2022-12-18T19:49:10.349Z,165.38
2022-12-18T19:51:37.023Z,167.55
2022-12-18T19:54:04.371Z,169.27
2022-12-18T19:56:33.620Z,162.45
2022-12-18T19:59:01.201Z,168.57
2022-12-18T20:01:29.546Z,171.50
2022-12-18T20:03:57.046Z,163.30
2022-12-18T20:06:31.911Z,173.15
2022-12-18T20:09:05.401Z,165.30
2022-12-18T20:11:33.691Z,161.73
2022-12-18T20:14:05.193Z,166.02
2022-12-18T20:16:32.114Z,164.70
2022-12-18T20:18:59.063Z,162.68
2022-12-18T20:21:25.984Z,164.70
2022-12-18T20:23:53.188Z,164.23
2022-12-18T20:26:19.838Z,284.15
2022-12-18T20:28:46.517Z,178.60
2022-12-18T20:31:14.167Z,174.57
2022-12-18T20:33:42.181Z,163.40
2022-12-18T20:36:14.403Z,163.35
2022-12-18T20:38:42.721Z,169.82
2022-12-18T20:41:17.127Z,173.40
2022-12-18T20:43:44.516Z,359.33
2022-12-18T20:46:13.737Z,182.35
2022-12-18T20:48:41.367Z,180.10
2022-12-18T20:51:10.788Z,183.65
2022-12-18T20:53:40.718Z,175.23
2022-12-18T20:56:11.955Z,171.48
2022-12-18T20:58:38.819Z,181.52
2022-12-18T21:01:14.208Z,160.43
2022-12-18T21:03:42.179Z,172.25
2022-12-18T21:06:10.351Z,167.40
2022-12-18T21:08:37.694Z,166.38
2022-12-18T21:11:32.062Z,167.65
2022-12-18T21:13:59.395Z,160.70
2022-12-18T21:16:26.269Z,182.70
2022-12-18T21:18:53.394Z,174.02
2022-12-18T21:21:26.370Z,158.20
2022-12-18T21:23:54.048Z,167.40
2022-12-18T21:26:23.915Z,158.95
2022-12-18T21:28:59.873Z,178.60
2022-12-18T21:31:32.870Z,161.93
2022-12-18T21:34:02.022Z,162.55
2022-12-18T21:36:30.656Z,168.60
2022-12-18T21:38:58.799Z,171.88
2022-12-18T21:41:45.687Z,167.25
2022-12-18T21:46:51.368Z,152.02
2022-12-18T21:49:22.563Z,162.07
2022-12-18T21:51:51.607Z,166.20
2022-12-18T21:54:19.765Z,167.40
2022-12-18T21:56:55.397Z,166.65
2022-12-18T21:59:21.984Z,169.50
2022-12-18T22:01:49.841Z,172.40
2022-12-18T22:04:18.261Z,160.38
2022-12-18T22:06:46.228Z,158.98
2022-12-18T22:09:15.733Z,158.18
2022-12-18T22:11:42.568Z,163.60
2022-12-18T22:14:09.602Z,155.95
2022-12-18T22:16:36.714Z,163.75
2022-12-18T22:19:04.684Z,159.40
2022-12-18T22:21:34.544Z,162.52
2022-12-18T22:24:16.421Z,161.65
2022-12-18T22:26:43.553Z,168.60
2022-12-18T22:29:37.769Z,163.20
2022-12-18T22:32:06.342Z,161.15
2022-12-18T22:34:36.578Z,160.88
2022-12-18T22:37:03.789Z,168.90
2022-12-18T22:39:30.587Z,170.70
2022-12-18T22:41:58.258Z,165.82
2022-12-18T22:44:25.067Z,167.18
2022-12-18T22:47:06.536Z,169.25
2022-12-18T22:49:35.655Z,159.30
2022-12-18T22:52:07.519Z,178.15
2022-12-18T22:54:34.397Z,158.85
2022-12-18T22:57:01.034Z,153.80
2022-12-18T22:59:27.738Z,159.63
2022-12-18T23:01:59.096Z,163.30
2022-12-18T23:04:30.624Z,150.68
2022-12-18T23:07:04.202Z,172.25
2022-12-18T23:09:31.116Z,164.73
2022-12-18T23:11:57.823Z,154.00
2022-12-18T23:14:24.530Z,173.00
2022-12-18T23:16:53.069Z,149.77
2022-12-18T23:19:20.186Z,159.85
2022-12-18T23:21:47.497Z,161.32
2022-12-18T23:24:14.367Z,162.27
2022-12-18T23:26:41.463Z,160.82
2022-12-18T23:29:08.367Z,164.23
2022-12-18T23:31:37.538Z,173.50
2022-12-18T23:34:05.606Z,170.70
2022-12-18T23:36:35.895Z,172.45
2022-12-18T23:39:17.436Z,161.38
2022-12-18T23:41:59.202Z,159.73
2022-12-18T23:44:26.261Z,170.90
2022-12-18T23:46:53.372Z,166.95
2022-12-18T23:49:20.172Z,171.35
2022-12-18T23:51:46.862Z,164.85
2022-12-18T23:54:13.636Z,179.20
2022-12-18T23:56:40.247Z,168.77
2022-12-18T23:59:09.942Z,155.02
